Time;durP1;ratioP1;P1;durP2;ratioP2;P2;SDS_P1;SDS_P2;PMS_P1;PMS_P2;Temp;Humidity;BMP_temperature;BMP_pressure;BME280_temperature;BME280_humidity;BME280_pressure;Samples;Min_cycle;Max_cycle;Signal;HPM_P1;HPM_P2
2024/04/15 00:00:45;;;;;;;3.03;1.63;;;13.10;98.40;;;;;;5491666;26;20499;-65
2024/04/15 00:03:10;;;;;;;3.50;1.50;;;13.10;97.90;;;;;;5491629;26;20504;-65
2024/04/15 00:05:41;;;;;;;7.07;1.90;;;13.20;97.50;;;;;;5491692;26;20454;-65
2024/04/15 00:08:07;;;;;;;2.70;1.90;;;13.20;97.50;;;;;;5491512;26;20206;-65
2024/04/15 00:10:38;;;;;;;4.63;1.73;;;13.20;97.60;;;;;;5491773;26;20505;-65
2024/04/15 00:13:04;;;;;;;3.70;1.90;;;13.20;97.50;;;;;;5491615;26;20225;-65
2024/04/15 00:15:32;;;;;;;2.00;1.80;;;13.10;98.10;;;;;;5491529;26;20451;-65
2024/04/15 00:17:57;;;;;;;1.90;1.80;;;13.10;98.90;;;;;;5491421;26;20213;-66
2024/04/15 00:20:26;;;;;;;3.07;1.60;;;13.00;99.40;;;;;;5491361;26;20495;-66
2024/04/15 00:22:54;;;;;;;2.47;1.43;;;12.80;99.90;;;;;;5491439;26;20222;-65
2024/04/15 00:25:22;;;;;;;1.70;1.60;;;12.70;99.90;;;;;;5491468;26;20451;-65
2024/04/15 00:27:47;;;;;;;2.93;2.00;;;12.70;99.90;;;;;;5491230;26;20807;-65
2024/04/15 00:30:16;;;;;;;2.33;1.60;;;12.70;99.90;;;;;;5491336;26;20498;-65
2024/04/15 00:32:42;;;;;;;4.93;1.87;;;12.60;99.90;;;;;;5491328;26;20212;-65
2024/04/15 00:35:10;;;;;;;2.70;1.47;;;12.50;99.90;;;;;;5491067;26;20451;-65
2024/04/15 00:37:35;;;;;;;2.70;1.90;;;12.40;99.90;;;;;;5491225;26;20455;-65
2024/04/15 00:40:07;;;;;;;3.30;1.80;;;12.40;99.90;;;;;;5491343;26;20451;-65
2024/04/15 00:42:33;;;;;;;5.83;1.63;;;12.40;99.90;;;;;;5491122;26;20234;-65
2024/04/15 00:45:01;;;;;;;4.70;1.70;;;12.50;99.90;;;;;;5491135;26;20448;-65
2024/04/15 00:47:26;;;;;;;1.57;1.10;;;12.60;99.90;;;;;;5490982;26;20673;-65
2024/04/15 00:49:55;;;;;;;3.33;1.47;;;12.70;99.90;;;;;;5490910;26;20507;-65
2024/04/15 00:52:20;;;;;;;2.90;1.63;;;12.70;99.90;;;;;;5489502;26;20206;-65
2024/04/15 00:54:49;;;;;;;5.30;1.70;;;12.70;99.90;;;;;;5490854;26;20475;-65
2024/04/15 00:57:17;;;;;;;2.57;1.40;;;12.80;99.90;;;;;;5490931;26;20233;-65
2024/04/15 00:59:46;;;;;;;5.27;1.90;;;12.90;99.90;;;;;;5490727;26;20468;-65
2024/04/15 01:02:11;;;;;;;5.30;2.00;;;12.90;99.90;;;;;;5490733;26;20459;-65
2024/04/15 01:04:41;;;;;;;6.90;1.87;;;12.80;99.90;;;;;;5490652;26;20538;-65
2024/04/15 01:07:06;;;;;;;2.70;1.30;;;12.80;99.60;;;;;;5490719;26;20300;-65
2024/04/15 01:09:34;;;;;;;3.63;1.57;;;12.80;99.40;;;;;;5490705;26;20447;-65
2024/04/15 01:12:00;;;;;;;6.87;1.73;;;12.90;99.20;;;;;;5490715;26;20240;-65
2024/04/15 01:14:31;;;;;;;2.63;1.60;;;12.90;98.90;;;;;;5490552;26;20459;-65
2024/04/15 01:16:56;;;;;;;1.43;1.30;;;13.00;99.00;;;;;;5490618;26;20233;-65
2024/04/15 01:19:24;;;;;;;2.87;1.60;;;13.00;99.00;;;;;;5491223;26;20854;-65
2024/04/15 01:21:50;;;;;;;5.43;1.50;;;12.90;98.00;;;;;;5491107;26;20222;-65
2024/04/15 01:24:21;;;;;;;3.00;1.50;;;12.90;98.40;;;;;;5490964;26;20456;-65
2024/04/15 01:26:46;;;;;;;1.67;1.20;;;12.90;98.30;;;;;;5490766;26;20248;-65
2024/04/15 01:29:15;;;;;;;4.60;2.23;;;12.90;98.10;;;;;;5490633;26;20455;-66
2024/04/15 01:31:40;;;;;;;3.67;1.30;;;12.90;98.10;;;;;;5490426;26;20711;-65
2024/04/15 01:34:08;;;;;;;5.37;1.70;;;12.90;98.00;;;;;;5490211;26;20495;-65
2024/04/15 01:36:34;;;;;;;3.43;1.27;;;12.70;98.00;;;;;;5490352;26;20693;-65
2024/04/15 01:39:02;;;;;;;1.77;1.20;;;12.50;98.80;;;;;;5490254;26;20455;-65
2024/04/15 01:41:30;;;;;;;6.40;2.10;;;12.60;99.00;;;;;;5490223;26;20213;-65
2024/04/15 01:43:58;;;;;;;5.60;2.07;;;12.50;98.80;;;;;;5490088;26;20870;-65
2024/04/15 01:46:24;;;;;;;3.33;1.30;;;12.40;99.00;;;;;;5490198;26;20496;-65
2024/04/15 01:48:52;;;;;;;6.17;1.83;;;12.40;99.20;;;;;;5490221;26;20856;-65
2024/04/15 01:51:18;;;;;;;5.70;1.63;;;12.40;98.60;;;;;;5490068;26;20219;-65
2024/04/15 01:53:46;;;;;;;2.13;1.43;;;12.30;99.00;;;;;;5490038;26;20962;-65
2024/04/15 01:56:12;;;;;;;1.93;1.40;;;12.40;98.80;;;;;;5489978;26;20239;-65
2024/04/15 01:58:42;;;;;;;4.93;1.70;;;12.40;98.80;;;;;;5489920;26;20499;-65
2024/04/15 02:01:08;;;;;;;3.70;1.60;;;12.30;98.80;;;;;;5490102;26;20249;-65
2024/04/15 02:03:36;;;;;;;5.67;1.67;;;12.40;98.80;;;;;;5489525;26;20794;-65
2024/04/15 02:06:02;;;;;;;4.43;1.50;;;12.30;98.40;;;;;;5489941;26;20245;-65
2024/04/15 02:08:31;;;;;;;4.83;1.67;;;12.30;98.50;;;;;;5489932;26;20451;-65
2024/04/15 02:10:56;;;;;;;4.50;1.40;;;12.20;98.40;;;;;;5489686;26;20443;-65
2024/04/15 02:13:24;;;;;;;3.30;1.67;;;12.10;98.60;;;;;;5490058;26;20455;-65
2024/04/15 02:15:52;;;;;;;2.70;1.43;;;12.10;99.30;;;;;;5489639;26;20249;-65
2024/04/15 02:18:20;;;;;;;3.03;1.13;;;12.10;99.00;;;;;;5489600;26;20451;-65
2024/04/15 02:20:47;;;;;;;3.43;1.70;;;12.00;99.10;;;;;;5489588;26;20442;-65
2024/04/15 02:23:15;;;;;;;3.63;1.50;;;12.00;99.40;;;;;;5489586;26;20427;-65
2024/04/15 02:25:42;;;;;;;4.93;1.47;;;12.00;99.20;;;;;;5489534;26;20451;-65
2024/04/15 02:28:10;;;;;;;4.47;1.67;;;12.00;98.70;;;;;;5489501;26;20563;-65
2024/04/15 02:30:36;;;;;;;6.40;1.60;;;12.00;99.10;;;;;;5489426;26;20942;-65
2024/04/15 02:33:06;;;;;;;5.07;1.23;;;11.80;98.80;;;;;;5489361;26;20451;-65
2024/04/15 02:35:32;;;;;;;4.30;1.67;;;11.80;98.90;;;;;;5489350;26;20236;-65
2024/04/15 02:38:00;;;;;;;5.23;1.53;;;11.90;99.00;;;;;;5489324;26;20844;-65
2024/04/15 02:40:26;;;;;;;5.13;1.93;;;11.90;99.00;;;;;;5489371;26;20253;-65
2024/04/15 02:42:54;;;;;;;2.60;1.30;;;12.00;99.10;;;;;;5489269;26;20679;-65
2024/04/15 02:45:20;;;;;;;3.03;1.10;;;12.10;99.00;;;;;;5489206;26;20453;-65
2024/04/15 02:47:48;;;;;;;1.90;1.30;;;12.20;98.70;;;;;;5489321;26;20494;-65
2024/04/15 02:50:16;;;;;;;2.93;1.40;;;12.30;98.30;;;;;;5489138;26;20214;-65
2024/04/15 02:52:44;;;;;;;4.00;1.40;;;12.40;98.40;;;;;;5488969;26;20486;-65
2024/04/15 02:55:10;;;;;;;7.13;1.50;;;12.40;98.70;;;;;;5488848;26;21002;-65
2024/04/15 02:57:38;;;;;;;7.23;1.10;;;12.50;98.70;;;;;;5489107;26;20488;-65
2024/04/15 03:00:05;;;;;;;2.90;1.20;;;12.60;98.70;;;;;;5489007;26;20212;-65
2024/04/15 03:02:33;;;;;;;5.50;1.67;;;12.70;98.70;;;;;;5488830;26;20445;-66
2024/04/15 03:04:59;;;;;;;3.20;1.50;;;12.70;98.70;;;;;;5488841;26;20448;-65
2024/04/15 03:07:29;;;;;;;6.10;1.77;;;12.50;99.00;;;;;;5488850;26;20447;-65
2024/04/15 03:09:55;;;;;;;5.90;1.90;;;12.50;99.10;;;;;;5488751;26;20452;-65
2024/04/15 03:12:23;;;;;;;5.30;2.03;;;12.50;99.50;;;;;;5488820;26;20450;-65
2024/04/15 03:14:49;;;;;;;3.40;1.27;;;12.50;99.90;;;;;;5488562;26;20709;-65
2024/04/15 03:17:17;;;;;;;5.80;1.30;;;12.50;99.90;;;;;;5492275;26;20463;-65
2024/04/15 03:19:43;;;;;;;6.50;1.87;;;12.50;99.90;;;;;;5492215;26;20214;-65
2024/04/15 03:22:11;;;;;;;4.10;1.20;;;12.60;99.90;;;;;;5492412;26;20462;-65
2024/04/15 03:24:40;;;;;;;2.13;1.40;;;12.60;99.80;;;;;;5492255;26;20210;-65
2024/04/15 03:27:08;;;;;;;2.53;1.13;;;12.70;99.90;;;;;;5492159;26;20499;-65
2024/04/15 03:29:34;;;;;;;8.23;1.73;;;12.80;99.90;;;;;;5492053;26;20492;-66
2024/04/15 03:32:02;;;;;;;3.00;1.20;;;12.80;99.90;;;;;;5492040;26;20455;-65
2024/04/15 03:34:27;;;;;;;3.47;1.70;;;12.80;99.90;;;;;;5491874;26;20594;-65
2024/04/15 03:36:55;;;;;;;5.93;1.53;;;12.80;99.70;;;;;;5492004;26;20496;-65
2024/04/15 03:39:23;;;;;;;10.33;1.83;;;12.70;99.50;;;;;;5492063;26;20602;-65
2024/04/15 03:41:54;;;;;;;4.03;1.40;;;12.80;99.20;;;;;;5491940;26;20445;-65
2024/04/15 03:44:22;;;;;;;5.47;1.70;;;12.90;99.10;;;;;;5491909;26;20483;-65
2024/04/15 03:46:49;;;;;;;1.70;1.30;;;12.90;99.40;;;;;;5491795;26;20487;-65
2024/04/15 03:49:17;;;;;;;3.30;1.20;;;12.80;99.30;;;;;;5491880;26;20450;-65
2024/04/15 03:51:42;;;;;;;8.70;2.20;;;12.80;99.40;;;;;;5491732;26;20957;-65
2024/04/15 03:54:11;;;;;;;5.37;1.80;;;12.90;99.50;;;;;;5491450;26;20496;-65
2024/04/15 03:56:36;;;;;;;2.53;1.13;;;12.90;99.70;;;;;;5491802;26;20237;-65
2024/04/15 03:59:07;;;;;;;3.77;1.47;;;12.90;99.40;;;;;;5491750;26;20459;-65
2024/04/15 04:01:32;;;;;;;4.70;1.37;;;12.90;99.30;;;;;;5491628;26;20604;-65
2024/04/15 04:04:00;;;;;;;2.50;1.43;;;12.80;99.30;;;;;;5491586;26;20444;-65
2024/04/15 04:06:26;;;;;;;5.20;2.20;;;12.90;99.30;;;;;;5491544;26;20240;-65
2024/04/15 04:08:55;;;;;;;2.93;1.27;;;12.90;99.70;;;;;;5491516;26;20501;-65
2024/04/15 04:11:21;;;;;;;5.40;1.50;;;13.00;99.80;;;;;;5491531;26;20456;-65
2024/04/15 04:13:50;;;;;;;9.13;1.87;;;12.90;99.60;;;;;;5491383;26;20458;-65
2024/04/15 04:16:18;;;;;;;2.37;1.10;;;12.90;99.40;;;;;;5491511;26;20495;-65
2024/04/15 04:18:47;;;;;;;6.13;1.73;;;12.80;99.40;;;;;;5491360;26;20447;-65
2024/04/15 04:21:15;;;;;;;4.93;1.70;;;12.80;99.90;;;;;;5491352;26;20495;-65
2024/04/15 04:23:41;;;;;;;4.87;1.17;;;12.50;99.90;;;;;;5491267;26;20965;-65
2024/04/15 04:26:09;;;;;;;6.60;1.70;;;12.50;99.90;;;;;;5491009;26;20447;-65
2024/04/15 04:28:34;;;;;;;6.37;1.87;;;12.40;99.90;;;;;;5491205;26;20211;-65
2024/04/15 04:31:04;;;;;;;4.20;1.40;;;12.40;99.90;;;;;;5491009;26;20492;-65
2024/04/15 04:33:32;;;;;;;6.97;2.20;;;12.40;99.90;;;;;;5491194;26;20721;-65
2024/04/15 04:36:00;;;;;;;4.30;1.30;;;12.40;99.90;;;;;;5490957;26;20552;-65
2024/04/15 04:38:26;;;;;;;4.23;1.83;;;12.50;99.90;;;;;;5491024;26;20487;-65
2024/04/15 04:40:58;;;;;;;9.93;1.60;;;12.50;99.90;;;;;;5491075;26;20555;-65
2024/04/15 04:43:23;;;;;;;2.53;1.37;;;12.50;99.90;;;;;;5491060;26;20455;-65
2024/04/15 04:45:51;;;;;;;10.07;3.43;;;12.50;99.90;;;;;;5491157;26;20495;-65
2024/04/15 04:48:17;;;;;;;3.10;1.30;;;12.60;99.90;;;;;;5490818;26;20221;-65
2024/04/15 04:50:49;;;;;;;4.23;1.63;;;12.50;99.90;;;;;;5490730;26;20444;-65
2024/04/15 04:53:15;;;;;;;6.87;2.10;;;12.40;99.90;;;;;;5490828;26;20210;-66
2024/04/15 04:55:43;;;;;;;5.53;1.30;;;12.40;99.90;;;;;;5490958;26;21046;-65
2024/04/15 04:58:08;;;;;;;9.53;2.10;;;12.40;99.90;;;;;;5491045;26;20227;-65
2024/04/15 05:00:36;;;;;;;3.20;1.30;;;12.30;99.90;;;;;;5491014;26;20498;-65
2024/04/15 05:03:03;;;;;;;2.63;1.47;;;12.30;99.90;;;;;;5490643;26;20206;-65
2024/04/15 05:05:35;;;;;;;5.00;2.17;;;12.10;99.90;;;;;;5490601;26;20427;-65
2024/04/15 05:08:04;;;;;;;6.23;1.60;;;12.10;99.90;;;;;;5490726;26;20503;-65
2024/04/15 05:10:33;;;;;;;2.87;1.70;;;12.10;99.90;;;;;;5490455;26;20454;-65
2024/04/15 05:12:58;;;;;;;4.17;1.63;;;12.10;99.90;;;;;;5490257;26;20780;-65
2024/04/15 05:15:26;;;;;;;5.57;2.33;;;12.00;99.90;;;;;;5490383;26;20475;-65
2024/04/15 05:17:52;;;;;;;5.47;1.70;;;12.00;99.90;;;;;;5490683;26;20252;-65
2024/04/15 05:20:20;;;;;;;3.87;1.60;;;11.90;99.90;;;;;;5490315;26;20459;-65
2024/04/15 05:22:46;;;;;;;2.47;1.60;;;11.80;99.90;;;;;;5490422;26;20729;-65
2024/04/15 05:25:16;;;;;;;5.83;1.90;;;11.80;99.90;;;;;;5490324;26;20447;-65
2024/04/15 05:27:42;;;;;;;3.93;1.83;;;11.70;99.90;;;;;;5490318;26;20685;-65
2024/04/15 05:30:12;;;;;;;7.23;1.90;;;11.70;99.90;;;;;;5490205;26;20499;-65
2024/04/15 05:32:37;;;;;;;5.90;2.10;;;11.60;99.90;;;;;;5490276;26;20209;-65
2024/04/15 05:35:06;;;;;;;6.00;2.00;;;11.60;99.90;;;;;;5490172;26;20469;-65
2024/04/15 05:37:31;;;;;;;2.87;1.40;;;11.70;99.90;;;;;;5489672;26;20611;-65
2024/04/15 05:40:00;;;;;;;3.73;2.13;;;11.80;99.90;;;;;;5489515;26;20960;-65
2024/04/15 05:42:28;;;;;;;3.63;1.67;;;11.90;99.90;;;;;;5490411;26;20217;-65
2024/04/15 05:44:56;;;;;;;8.27;1.83;;;11.90;99.90;;;;;;5490033;26;20446;-65
2024/04/15 05:47:21;;;;;;;5.53;1.90;;;12.10;99.90;;;;;;5489901;26;20451;-65
2024/04/15 05:49:49;;;;;;;6.90;1.90;;;12.20;99.90;;;;;;5490600;26;20451;-65
2024/04/15 05:52:15;;;;;;;4.07;1.23;;;12.60;99.90;;;;;;5489916;26;20210;-65
2024/04/15 05:54:43;;;;;;;6.90;1.43;;;12.80;99.90;;;;;;5489643;26;20519;-65
2024/04/15 05:57:09;;;;;;;3.20;1.80;;;12.70;99.90;;;;;;5489743;26;20214;-65
2024/04/15 05:59:40;;;;;;;3.10;1.87;;;12.70;99.90;;;;;;5489771;26;21056;-65
2024/04/15 06:02:05;;;;;;;9.40;2.83;;;12.90;99.90;;;;;;5489559;26;20561;-67
2024/04/15 06:04:35;;;;;;;7.90;2.27;;;13.00;99.90;;;;;;5489422;26;20439;-65
2024/04/15 06:07:01;;;;;;;2.63;1.80;;;13.00;99.90;;;;;;5489620;26;20210;-65
2024/04/15 06:09:29;;;;;;;3.77;1.53;;;13.00;99.90;;;;;;5489731;26;21076;-65
2024/04/15 06:11:54;;;;;;;3.40;1.50;;;13.10;99.90;;;;;;5489611;26;20210;-65
2024/04/15 06:14:23;;;;;;;5.57;1.30;;;13.10;99.90;;;;;;5489625;26;20512;-65
2024/04/15 06:16:52;;;;;;;3.73;1.77;;;13.30;99.90;;;;;;5489437;26;20336;-66
2024/04/15 06:19:20;;;;;;;5.40;1.67;;;13.40;99.90;;;;;;5489754;26;20820;-65
2024/04/15 06:21:45;;;;;;;4.60;1.80;;;13.50;99.90;;;;;;5489452;26;20447;-65
2024/04/15 06:24:14;;;;;;;3.17;1.43;;;13.50;99.90;;;;;;5489545;26;20502;-65
2024/04/15 06:26:40;;;;;;;4.87;1.80;;;13.50;99.90;;;;;;5489274;26;20214;-65
2024/04/15 06:29:08;;;;;;;5.40;1.80;;;13.50;99.90;;;;;;5489392;26;20730;-66
2024/04/15 06:31:34;;;;;;;4.67;2.10;;;13.40;99.90;;;;;;5489594;26;20450;-65
2024/04/15 06:34:05;;;;;;;2.33;2.10;;;13.30;99.90;;;;;;5489388;26;20455;-65
2024/04/15 06:36:31;;;;;;;3.70;1.90;;;13.10;99.90;;;;;;5488789;26;20218;-65
2024/04/15 06:38:59;;;;;;;2.60;1.63;;;13.10;99.90;;;;;;5489102;26;20447;-65
2024/04/15 06:41:25;;;;;;;4.77;1.90;;;13.20;99.90;;;;;;5489195;26;20443;-66
2024/04/15 06:43:53;;;;;;;4.30;1.50;;;13.20;99.90;;;;;;5489012;26;20485;-65
2024/04/15 06:46:18;;;;;;;7.60;2.00;;;13.30;99.90;;;;;;5489103;26;20248;-66
2024/04/15 06:48:46;;;;;;;3.60;1.53;;;13.20;99.90;;;;;;5489242;26;21017;-65
2024/04/15 06:51:15;;;;;;;4.90;1.50;;;13.30;99.90;;;;;;5490826;26;20211;-65
2024/04/15 06:53:43;;;;;;;4.00;1.93;;;13.10;99.90;;;;;;5492389;26;20450;-65
2024/04/15 06:56:09;;;;;;;4.30;1.73;;;13.10;99.90;;;;;;5492232;26;20499;-65
2024/04/15 06:58:38;;;;;;;4.23;1.60;;;13.30;99.90;;;;;;5491871;26;21010;-66
2024/04/15 07:01:04;;;;;;;5.73;2.00;;;13.50;99.90;;;;;;5492225;26;20513;-66
2024/04/15 07:03:32;;;;;;;9.07;2.47;;;13.50;99.90;;;;;;5492303;26;20459;-66
2024/04/15 07:05:57;;;;;;;2.80;1.50;;;13.80;99.90;;;;;;5492102;26;20570;-66
2024/04/15 07:08:28;;;;;;;7.37;2.17;;;14.00;99.90;;;;;;5490606;26;20523;-66
2024/04/15 07:10:53;;;;;;;4.93;1.90;;;14.20;99.90;;;;;;5489964;26;20230;-66
2024/04/15 07:13:21;;;;;;;6.57;1.93;;;14.30;99.90;;;;;;5491108;26;20545;-65
2024/04/15 07:15:48;;;;;;;4.60;1.50;;;14.20;99.90;;;;;;5491944;26;20269;-66
2024/04/15 07:18:16;;;;;;;3.77;2.40;;;14.20;99.90;;;;;;5492168;26;20503;-66
2024/04/15 07:20:44;;;;;;;4.30;1.67;;;14.50;99.90;;;;;;5492180;26;20442;-65
2024/04/15 07:23:12;;;;;;;2.20;1.90;;;14.70;99.90;;;;;;5491880;26;20607;-66
2024/04/15 07:25:41;;;;;;;3.40;1.63;;;14.90;99.90;;;;;;5491983;26;21020;-66
2024/04/15 07:28:09;;;;;;;5.93;1.80;;;15.00;99.90;;;;;;5491931;26;20878;-66
2024/04/15 07:30:34;;;;;;;3.13;1.83;;;15.00;99.90;;;;;;5491963;26;20503;-66
2024/04/15 07:33:03;;;;;;;5.83;2.00;;;15.20;99.90;;;;;;5492172;26;20514;-66
2024/04/15 07:35:30;;;;;;;4.27;1.90;;;15.30;99.90;;;;;;5491979;26;20216;-66
2024/04/15 07:37:58;;;;;;;6.50;1.87;;;15.40;99.90;;;;;;5491727;26;20454;-66
2024/04/15 07:40:24;;;;;;;2.33;1.90;;;15.30;99.90;;;;;;5491814;26;20500;-66
2024/04/15 07:42:55;;;;;;;3.40;2.20;;;15.20;99.90;;;;;;5491765;26;20455;-66
2024/04/15 07:45:21;;;;;;;3.80;2.00;;;15.40;99.90;;;;;;5491753;26;20256;-66
2024/04/15 07:47:49;;;;;;;5.67;2.03;;;15.70;99.90;;;;;;5491912;26;20558;-66
2024/04/15 07:50:14;;;;;;;3.60;2.03;;;15.50;99.90;;;;;;5492260;26;20208;-66
2024/04/15 07:52:43;;;;;;;3.40;2.07;;;15.60;99.90;;;;;;5491744;26;20461;-65
2024/04/15 07:55:08;;;;;;;6.30;2.50;;;15.20;99.90;;;;;;5491468;26;20273;-65
2024/04/15 07:57:36;;;;;;;3.17;2.07;;;15.50;99.90;;;;;;5491640;26;20458;-65
2024/04/15 08:00:06;;;;;;;4.50;2.13;;;15.70;99.90;;;;;;5491559;26;20217;-66
2024/04/15 08:02:34;;;;;;;8.70;2.53;;;15.40;99.90;;;;;;5490762;26;20503;-65
2024/04/15 08:05:00;;;;;;;5.70;2.33;;;15.40;99.90;;;;;;5491331;26;20498;-66
2024/04/15 08:07:28;;;;;;;3.00;2.50;;;15.40;99.90;;;;;;5491515;26;20484;-66
2024/04/15 08:09:54;;;;;;;5.93;1.93;;;15.40;99.90;;;;;;5491415;26;20446;-66
2024/04/15 08:12:22;;;;;;;2.77;2.13;;;15.50;99.90;;;;;;5491261;26;20499;-67
2024/04/15 08:14:48;;;;;;;3.67;1.90;;;15.50;99.90;;;;;;5491372;26;20206;-66
2024/04/15 08:17:18;;;;;;;3.83;1.87;;;15.70;99.90;;;;;;5491327;26;20450;-66
2024/04/15 08:19:45;;;;;;;7.43;2.20;;;15.60;99.90;;;;;;5491375;26;20210;-66
2024/04/15 08:22:13;;;;;;;6.13;2.00;;;15.70;99.90;;;;;;5491436;26;20966;-66
2024/04/15 08:24:39;;;;;;;3.20;2.10;;;15.80;99.90;;;;;;5491267;26;20816;-66
2024/04/15 08:27:08;;;;;;;2.50;2.13;;;15.90;99.90;;;;;;5491265;26;20462;-66
2024/04/15 08:29:33;;;;;;;3.03;2.57;;;15.90;99.90;;;;;;5491089;26;20320;-66
2024/04/15 08:32:02;;;;;;;7.10;2.77;;;15.90;99.90;;;;;;5491190;26;20467;-66
2024/04/15 08:34:30;;;;;;;3.33;2.23;;;15.90;99.90;;;;;;5491020;26;20715;-65
2024/04/15 08:36:58;;;;;;;4.17;2.17;;;15.90;99.90;;;;;;5490918;26;20506;-66
2024/04/15 08:39:23;;;;;;;3.30;2.30;;;15.70;99.90;;;;;;5491206;26;20457;-65
2024/04/15 08:42:01;;;;;;;7.40;2.57;;;15.60;99.90;;;;;;5491114;26;20454;-66
2024/04/15 08:44:27;;;;;;;11.93;3.87;;;15.40;99.90;;;;;;5490913;26;20229;-66
2024/04/15 08:46:58;;;;;;;3.40;2.13;;;15.40;99.90;;;;;;5490865;26;21011;-66
2024/04/15 08:49:23;;;;;;;7.17;2.17;;;15.50;99.90;;;;;;5490896;26;20450;-66
2024/04/15 08:51:54;;;;;;;6.93;2.43;;;15.60;99.90;;;;;;5491000;26;20502;-66
2024/04/15 08:54:20;;;;;;;2.70;2.10;;;15.80;99.90;;;;;;5490731;26;20228;-66
2024/04/15 08:56:50;;;;;;;3.27;2.10;;;16.00;99.90;;;;;;5490583;26;20447;-66
2024/04/15 08:59:17;;;;;;;5.70;2.67;;;16.10;99.90;;;;;;5490744;26;20221;-65
2024/04/15 09:01:46;;;;;;;2.60;1.67;;;16.00;99.90;;;;;;5488855;26;20529;-66
2024/04/15 09:04:12;;;;;;;5.00;2.50;;;16.30;99.90;;;;;;5490578;26;20974;-67
2024/04/15 09:06:41;;;;;;;4.37;2.10;;;16.20;99.90;;;;;;5490697;26;20458;-67
2024/04/15 09:09:10;;;;;;;3.73;1.83;;;16.30;99.90;;;;;;5490517;26;20454;-67
2024/04/15 09:11:38;;;;;;;2.80;2.33;;;16.10;99.90;;;;;;5490525;26;20961;-67
2024/04/15 09:14:03;;;;;;;2.50;2.30;;;16.30;99.90;;;;;;5489036;26;20495;-66
2024/04/15 09:16:31;;;;;;;4.10;2.17;;;16.50;99.90;;;;;;5490277;26;20451;-67
2024/04/15 09:18:58;;;;;;;2.37;1.60;;;16.70;99.90;;;;;;5490389;26;20218;-66
2024/04/15 09:21:27;;;;;;;2.70;2.00;;;16.90;99.90;;;;;;5490321;26;20451;-66
2024/04/15 09:23:53;;;;;;;4.40;2.00;;;17.00;99.90;;;;;;5490450;26;20443;-66
2024/04/15 09:26:24;;;;;;;3.70;1.80;;;17.10;99.90;;;;;;5490316;26;20502;-66
2024/04/15 09:28:50;;;;;;;3.60;2.20;;;16.90;99.90;;;;;;5490299;26;20443;-66
2024/04/15 09:31:18;;;;;;;3.80;1.47;;;17.10;99.90;;;;;;5490556;26;21067;-67
2024/04/15 09:33:43;;;;;;;3.80;2.20;;;17.20;99.90;;;;;;5490137;26;20233;-66
2024/04/15 09:36:11;;;;;;;3.53;1.70;;;17.00;99.50;;;;;;5489671;26;20467;-67
2024/04/15 09:38:38;;;;;;;2.80;1.73;;;16.90;99.90;;;;;;5489485;26;20280;-66
2024/04/15 09:41:08;;;;;;;3.50;1.80;;;16.80;99.80;;;;;;5489214;26;20462;-67
2024/04/15 09:43:37;;;;;;;3.53;2.13;;;16.80;99.40;;;;;;5489662;26;21054;-67
2024/04/15 09:46:06;;;;;;;4.50;2.43;;;16.70;99.90;;;;;;5490152;26;20499;-68
2024/04/15 09:48:31;;;;;;;5.57;2.23;;;16.90;99.90;;;;;;5489878;26;20495;-67
2024/04/15 09:51:07;;;;;;;2.13;1.93;;;17.00;99.90;;;;;;5490067;26;20459;-67
2024/04/15 09:53:37;;;;;;;2.40;1.70;;;16.70;98.70;;;;;;5489869;26;20221;-67
2024/04/15 09:56:13;;;;;;;2.80;1.87;;;16.60;99.60;;;;;;5489550;26;20573;-66
2024/04/15 09:58:44;;;;;;;1.73;1.63;;;16.60;99.90;;;;;;5489835;26;20495;-66
2024/04/15 10:01:19;;;;;;;2.73;1.47;;;16.60;99.90;;;;;;5489824;26;20435;-66
2024/04/15 10:03:47;;;;;;;2.13;1.40;;;16.70;99.90;;;;;;5489748;26;20558;-67
2024/04/15 10:06:19;;;;;;;1.80;1.70;;;16.60;99.80;;;;;;5489644;26;20498;-66
2024/04/15 10:08:45;;;;;;;2.40;1.67;;;16.70;99.90;;;;;;5489512;26;20442;-66
2024/04/15 10:11:13;;;;;;;5.00;1.70;;;16.70;99.20;;;;;;5489504;26;20499;-66
2024/04/15 10:13:42;;;;;;;3.60;1.47;;;16.90;99.00;;;;;;5489579;26;20495;-67
2024/04/15 10:16:21;;;;;;;4.23;1.83;;;16.60;98.70;;;;;;5489319;26;20970;-66
2024/04/15 10:18:51;;;;;;;3.07;1.10;;;16.70;99.30;;;;;;5489520;26;20435;-66
2024/04/15 10:21:20;;;;;;;4.07;1.10;;;16.70;98.90;;;;;;5489200;26;20628;-67
2024/04/15 10:23:46;;;;;;;1.57;1.17;;;16.60;98.40;;;;;;5489003;26;20447;-66
2024/04/15 10:26:16;;;;;;;7.67;1.40;;;16.60;98.30;;;;;;5489298;26;20459;-67
2024/04/15 10:28:44;;;;;;;3.83;1.43;;;16.50;98.20;;;;;;5489281;26;20447;-67
2024/04/15 10:31:15;;;;;;;1.37;1.27;;;16.10;99.10;;;;;;5489278;26;20779;-67
2024/04/15 10:33:51;;;;;;;2.67;1.40;;;16.20;99.10;;;;;;5489245;26;20502;-67
2024/04/15 10:36:19;;;;;;;3.13;1.23;;;16.20;98.80;;;;;;5489024;26;20609;-67
2024/04/15 10:38:49;;;;;;;2.33;1.10;;;16.30;99.90;;;;;;5489058;26;20480;-67
2024/04/15 10:41:22;;;;;;;3.83;1.37;;;16.10;99.40;;;;;;5489077;26;20466;-67
2024/04/15 10:43:50;;;;;;;2.70;1.80;;;16.00;99.50;;;;;;5489170;26;20883;-67
2024/04/15 10:46:20;;;;;;;2.13;1.30;;;15.90;99.90;;;;;;5489077;26;20501;-67
2024/04/15 10:48:45;;;;;;;5.50;1.30;;;15.90;99.90;;;;;;5488926;26;20442;-67
2024/04/15 10:51:13;;;;;;;2.70;1.80;;;15.90;99.90;;;;;;5488764;26;21057;-67
2024/04/15 10:53:40;;;;;;;1.97;1.50;;;15.90;99.90;;;;;;5488760;26;20209;-67
2024/04/15 10:56:10;;;;;;;1.40;1.20;;;16.00;99.90;;;;;;5488753;26;20466;-67
2024/04/15 10:58:36;;;;;;;2.87;1.63;;;16.10;99.90;;;;;;5488703;26;20461;-67
2024/04/15 11:01:07;;;;;;;1.77;1.67;;;16.20;99.90;;;;;;5488918;26;20503;-67
2024/04/15 11:03:33;;;;;;;1.80;1.50;;;16.30;99.90;;;;;;5483502;26;20339;-67
2024/04/15 11:06:01;;;;;;;1.87;1.57;;;16.40;99.90;;;;;;5483121;26;20463;-67
2024/04/15 11:08:28;;;;;;;2.50;1.30;;;16.30;99.90;;;;;;5488131;26;20230;-67
2024/04/15 11:10:56;;;;;;;2.13;1.23;;;16.20;99.90;;;;;;5488006;26;20810;-67
2024/04/15 11:13:23;;;;;;;1.40;1.30;;;16.20;99.90;;;;;;5488043;26;20463;-67
2024/04/15 11:15:54;;;;;;;3.00;1.30;;;16.30;99.90;;;;;;5487852;26;20466;-67
2024/04/15 11:18:22;;;;;;;1.70;1.40;;;16.30;99.90;;;;;;5483400;26;20451;-67
2024/04/15 11:20:51;;;;;;;2.70;1.30;;;16.50;99.90;;;;;;5487743;26;20993;-66
2024/04/15 11:23:18;;;;;;;2.60;1.40;;;16.40;99.90;;;;;;5487622;26;20535;-66
2024/04/15 11:25:47;;;;;;;3.17;1.30;;;16.20;99.90;;;;;;5487586;26;20523;-67
2024/04/15 11:28:14;;;;;;;3.60;1.57;;;16.10;99.90;;;;;;5487438;26;20515;-66
2024/04/15 11:30:42;;;;;;;3.10;1.50;;;16.00;99.90;;;;;;5483146;26;20517;-67
2024/04/15 11:33:08;;;;;;;3.77;1.63;;;15.90;99.90;;;;;;5487545;26;20990;-67
2024/04/15 11:35:48;;;;;;;2.40;1.93;;;15.80;99.90;;;;;;5487449;26;20870;-67
2024/04/15 11:38:14;;;;;;;1.90;1.80;;;15.60;99.90;;;;;;5491004;26;20540;-67
2024/04/15 11:40:43;;;;;;;2.20;2.00;;;15.50;99.90;;;;;;5491433;26;20579;-67
2024/04/15 11:43:09;;;;;;;3.97;2.77;;;15.40;99.90;;;;;;5486759;26;20262;-67
2024/04/15 11:45:37;;;;;;;4.20;3.00;;;15.20;99.90;;;;;;5491077;26;20861;-67
2024/04/15 11:48:06;;;;;;;3.00;2.77;;;15.20;99.90;;;;;;5490950;26;20550;-67
2024/04/15 11:50:35;;;;;;;3.63;2.73;;;15.20;99.90;;;;;;5491115;26;20592;-67
2024/04/15 11:53:07;;;;;;;4.73;3.43;;;15.40;99.90;;;;;;5491063;26;20840;-67
2024/04/15 11:55:35;;;;;;;3.63;3.37;;;15.30;99.90;;;;;;5487506;26;20470;-67
2024/04/15 11:58:01;;;;;;;3.73;3.53;;;15.50;99.90;;;;;;5490941;26;20522;-66
2024/04/15 12:00:31;;;;;;;4.40;3.30;;;15.80;99.90;;;;;;5490960;26;20876;-67
2024/04/15 12:02:56;;;;;;;4.80;3.10;;;16.20;99.90;;;;;;5490902;26;20463;-66
2024/04/15 12:05:28;;;;;;;3.80;3.47;;;16.40;99.90;;;;;;5490877;26;20463;-66
2024/04/15 12:07:56;;;;;;;3.30;2.60;;;16.60;99.90;;;;;;5490671;26;20264;-67
2024/04/15 12:10:27;;;;;;;2.80;2.60;;;16.80;99.90;;;;;;5490812;26;20806;-66
2024/04/15 12:12:52;;;;;;;2.50;2.23;;;17.00;99.90;;;;;;5490795;26;20513;-67
2024/04/15 12:15:20;;;;;;;2.83;2.63;;;17.10;99.90;;;;;;5490634;26;20458;-66
2024/04/15 12:17:46;;;;;;;2.40;2.20;;;16.90;99.90;;;;;;5485513;26;20225;-66
2024/04/15 12:20:15;;;;;;;3.77;2.70;;;17.00;99.90;;;;;;5490596;26;20463;-66
2024/04/15 12:22:41;;;;;;;2.50;2.30;;;16.90;99.90;;;;;;5490342;26;20258;-66
2024/04/15 12:25:09;;;;;;;4.37;2.43;;;17.10;99.90;;;;;;5485660;26;20467;-66
2024/04/15 12:27:37;;;;;;;2.30;2.10;;;17.10;99.90;;;;;;5490284;26;20249;-66
2024/04/15 12:30:08;;;;;;;2.47;2.27;;;17.10;99.90;;;;;;5490378;26;20518;-66
2024/04/15 12:32:34;;;;;;;2.80;2.43;;;16.90;99.90;;;;;;5490564;26;20462;-67
2024/04/15 12:35:02;;;;;;;3.30;3.10;;;16.70;99.90;;;;;;5490366;26;21038;-67
2024/04/15 12:37:28;;;;;;;3.77;2.93;;;16.80;99.90;;;;;;5485635;26;20222;-67
2024/04/15 12:39:56;;;;;;;3.50;3.20;;;17.20;99.90;;;;;;5490299;26;20512;-67
2024/04/15 12:42:21;;;;;;;2.73;2.53;;;17.20;99.90;;;;;;5490181;26;20307;-66
2024/04/15 12:44:52;;;;;;;2.70;2.50;;;17.20;99.90;;;;;;5490225;26;20471;-67
2024/04/15 12:47:18;;;;;;;2.20;2.00;;;17.10;99.90;;;;;;5490070;26;20237;-68